Time;durP1;ratioP1;P1;durP2;ratioP2;P2;SDS_P1;SDS_P2;PMS_P1;PMS_P2;Temp;Humidity;BMP_temperature;BMP_pressure;BME280_temperature;BME280_humidity;BME280_pressure;Samples;Min_cycle;Max_cycle;Signal;HPM_P1;HPM_P2
2023/03/14 00:01:53;;;;;;;4.53;1.42;;;;;;;;;;4972308;28;20593;-62
2023/03/14 00:04:25;;;;;;;4.55;1.48;;;;;;;;;;4988379;28;20057;-63
2023/03/14 00:06:57;;;;;;;2.15;1.10;;;;;;;;;;4986289;28;20061;-62
2023/03/14 00:09:31;;;;;;;1.90;0.98;;;;;;;;;;4973799;28;20058;-62
2023/03/14 00:12:02;;;;;;;2.70;0.90;;;;;;;;;;4988977;28;20054;-62
2023/03/14 00:14:37;;;;;;;2.63;1.30;;;;;;;;;;4941404;28;20077;-62
2023/03/14 00:17:10;;;;;;;2.55;1.02;;;;;;;;;;5014412;28;20054;-62
2023/03/14 00:19:42;;;;;;;3.78;0.98;;;;;;;;;;5012410;28;20452;-62
2023/03/14 00:22:14;;;;;;;3.92;0.90;;;;;;;;;;5028335;28;20049;-63
2023/03/14 00:24:44;;;;;;;1.55;0.80;;;;;;;;;;5042418;28;20061;-62
2023/03/14 00:27:16;;;;;;;2.33;0.82;;;;;;;;;;5067675;28;20511;-62
2023/03/14 00:29:47;;;;;;;2.42;1.13;;;;;;;;;;5035087;28;20056;-63
2023/03/14 00:32:18;;;;;;;2.25;1.00;;;;;;;;;;5027779;28;20057;-63
2023/03/14 00:34:49;;;;;;;1.77;0.90;;;;;;;;;;4996264;28;20501;-63
2023/03/14 00:37:20;;;;;;;4.38;1.10;;;;;;;;;;5014994;28;20183;-62
2023/03/14 00:39:52;;;;;;;;;;;;;;;;;;5031969;28;20057;-62
2023/03/14 00:42:26;;;;;;;1.70;0.73;;;;;;;;;;5016191;28;20363;-62
2023/03/14 00:44:59;;;;;;;2.08;0.80;;;;;;;;;;4978549;28;20053;-63
2023/03/14 00:47:32;;;;;;;1.58;0.80;;;;;;;;;;4964219;28;20053;-62
2023/03/14 00:50:03;;;;;;;3.67;1.02;;;;;;;;;;4972093;28;20050;-62
2023/03/14 00:52:35;;;;;;;4.43;0.73;;;;;;;;;;4956816;28;20051;-63
2023/03/14 00:55:08;;;;;;;2.33;0.82;;;;;;;;;;4972398;28;20058;-62
2023/03/14 00:57:39;;;;;;;1.95;0.70;;;;;;;;;;4972638;28;20403;-62
2023/03/14 01:00:13;;;;;;;1.40;0.70;;;;;;;;;;4924887;28;20514;-62
2023/03/14 01:02:44;;;;;;;4.70;0.70;;;;;;;;;;4940471;28;20135;-63
2023/03/14 01:05:15;;;;;;;1.70;1.23;;;;;;;;;;4959859;28;20398;-63
2023/03/14 01:07:47;;;;;;;1.30;0.60;;;;;;;;;;4952976;28;20055;-62
2023/03/14 01:10:42;;;;;;;1.20;0.52;;;;;;;;;;4895030;29;20048;-62
2023/03/14 01:13:13;;;;;;;1.33;0.60;;;;;;;;;;4898113;29;20060;-64
2023/03/14 01:15:45;;;;;;;5.45;0.70;;;;;;;;;;4914173;29;20059;-63
2023/03/14 01:18:22;;;;;;;1.83;0.68;;;;;;;;;;4899039;29;20076;-63
2023/03/14 01:20:52;;;;;;;2.70;0.70;;;;;;;;;;4880033;29;20052;-63
2023/03/14 01:23:24;;;;;;;;;;;;;;;;;;4926519;29;20067;-61
2023/03/14 01:25:56;;;;;;;1.60;0.50;;;;;;;;;;4932901;29;19923;-62
2023/03/14 01:28:26;;;;;;;4.35;0.70;;;;;;;;;;4902845;29;20053;-63
2023/03/14 01:31:02;;;;;;;1.77;0.80;;;;;;;;;;4879686;29;20080;-63
2023/03/14 01:33:33;;;;;;;1.40;0.75;;;;;;;;;;4948620;28;20590;-62
2023/03/14 01:36:04;;;;;;;1.60;0.60;;;;;;;;;;4933064;28;20535;-62
2023/03/14 01:38:39;;;;;;;1.88;0.60;;;;;;;;;;4913852;29;20189;-62
2023/03/14 01:41:21;;;;;;;1.40;0.60;;;;;;;;;;4932701;29;20047;-63
2023/03/14 01:43:54;;;;;;;2.38;0.75;;;;;;;;;;4932686;28;20052;-64
2023/03/14 01:46:26;;;;;;;5.45;0.90;;;;;;;;;;4915603;29;20059;-62
2023/03/14 01:49:27;;;;;;;1.90;0.68;;;;;;;;;;4932674;29;20048;-63
2023/03/14 01:52:16;;;;;;;1.70;0.90;;;;;;;;;;4931544;28;20054;-63
2023/03/14 01:54:52;;;;;;;2.70;1.00;;;;;;;;;;4926856;29;20055;-63
2023/03/14 01:57:25;;;;;;;3.75;1.15;;;;;;;;;;4951511;29;20059;-63
2023/03/14 02:00:01;;;;;;;4.45;0.80;;;;;;;;;;4951644;29;20055;-63
2023/03/14 02:02:46;;;;;;;3.22;0.80;;;;;;;;;;4949586;28;20066;-62
2023/03/14 02:05:23;;;;;;;1.58;0.60;;;;;;;;;;4971018;28;20062;-62
2023/03/14 02:08:00;;;;;;;1.83;0.70;;;;;;;;;;4951531;29;20054;-63
2023/03/14 02:10:39;;;;;;;2.72;1.02;;;;;;;;;;4908841;29;20194;-63
2023/03/14 02:13:11;;;;;;;3.20;0.90;;;;;;;;;;4913265;29;20052;-62
2023/03/14 02:15:59;;;;;;;1.67;0.50;;;;;;;;;;4878993;29;20629;-63
2023/03/14 02:18:58;;;;;;;2.05;0.73;;;;;;;;;;4902805;29;20048;-63
2023/03/14 02:21:40;;;;;;;4.30;0.68;;;;;;;;;;4894162;29;20571;-62
2023/03/14 02:24:31;;;;;;;2.13;0.93;;;;;;;;;;4875476;29;20056;-62
2023/03/14 02:27:10;;;;;;;1.38;1.00;;;;;;;;;;4894017;29;20056;-63
2023/03/14 02:29:54;;;;;;;1.63;0.70;;;;;;;;;;4889812;29;20061;-62
2023/03/14 02:32:27;;;;;;;3.13;0.77;;;;;;;;;;4893847;29;20425;-64
2023/03/14 02:34:59;;;;;;;1.27;0.68;;;;;;;;;;4894105;29;20501;-62
2023/03/14 02:37:41;;;;;;;2.75;0.77;;;;;;;;;;4893943;29;20060;-63
2023/03/14 02:40:12;;;;;;;2.17;0.82;;;;;;;;;;4881210;29;20055;-62
2023/03/14 02:42:43;;;;;;;1.63;0.63;;;;;;;;;;4890211;29;20103;-63
2023/03/14 02:45:16;;;;;;;3.53;0.93;;;;;;;;;;4906019;29;20051;-62
2023/03/14 02:47:54;;;;;;;1.05;0.60;;;;;;;;;;4882376;29;20060;-62
2023/03/14 02:50:33;;;;;;;1.40;0.77;;;;;;;;;;4844756;29;20524;-63
2023/03/14 02:53:04;;;;;;;;;;;;;;;;;;4875387;29;20142;-62
2023/03/14 02:55:35;;;;;;;1.88;0.80;;;;;;;;;;4875546;29;19924;-63
2023/03/14 02:58:11;;;;;;;2.53;0.80;;;;;;;;;;4855838;29;20053;-62
2023/03/14 03:00:42;;;;;;;2.22;0.77;;;;;;;;;;4874860;29;20205;-64
2023/03/14 03:03:13;;;;;;;1.33;0.73;;;;;;;;;;4863132;29;20061;-64
2023/03/14 03:05:43;;;;;;;4.18;0.77;;;;;;;;;;4843347;29;20053;-64
2023/03/14 03:08:14;;;;;;;1.40;0.70;;;;;;;;;;4844095;29;20517;-63
2023/03/14 03:10:43;;;;;;;2.38;0.73;;;;;;;;;;4858205;29;20068;-64
2023/03/14 03:13:14;;;;;;;2.17;0.85;;;;;;;;;;4858905;29;20053;-64
2023/03/14 03:15:47;;;;;;;2.90;0.73;;;;;;;;;;4855863;29;20076;-63
2023/03/14 03:18:19;;;;;;;1.63;0.60;;;;;;;;;;4837606;29;20054;-62
2023/03/14 03:20:49;;;;;;;2.55;1.00;;;;;;;;;;4850189;29;20066;-61
2023/03/14 03:23:19;;;;;;;2.13;0.70;;;;;;;;;;4856036;29;20061;-62
2023/03/14 03:25:50;;;;;;;5.03;0.80;;;;;;;;;;4856251;29;20058;-61
2023/03/14 03:28:21;;;;;;;1.67;0.88;;;;;;;;;;4825788;29;20116;-65
2023/03/14 03:30:52;;;;;;;2.00;0.80;;;;;;;;;;4855812;29;20053;-63
2023/03/14 03:33:24;;;;;;;1.90;0.93;;;;;;;;;;4855789;29;20060;-63
2023/03/14 03:35:54;;;;;;;2.63;0.82;;;;;;;;;;4846454;29;20415;-61
2023/03/14 03:38:29;;;;;;;1.77;0.63;;;;;;;;;;4837399;29;20066;-61
2023/03/14 03:41:06;;;;;;;1.75;0.77;;;;;;;;;;4866405;29;20045;-61
2023/03/14 03:43:36;;;;;;;2.40;0.70;;;;;;;;;;4873952;29;20057;-61
2023/03/14 03:46:08;;;;;;;;;;;;;;;;;;4871986;29;20060;-61
2023/03/14 03:48:38;;;;;;;3.50;0.88;;;;;;;;;;4855808;29;19932;-61
2023/03/14 03:51:12;;;;;;;1.35;0.70;;;;;;;;;;4848696;29;20065;-61
2023/03/14 03:53:43;;;;;;;2.72;0.90;;;;;;;;;;4837306;29;20546;-62
2023/03/14 03:56:16;;;;;;;2.28;0.80;;;;;;;;;;4855868;29;20049;-61
2023/03/14 03:58:46;;;;;;;2.38;0.68;;;;;;;;;;4874102;29;20079;-61
2023/03/14 04:01:17;;;;;;;2.25;1.23;;;;;;;;;;4858604;29;20064;-61
2023/03/14 04:03:53;;;;;;;1.95;0.70;;;;;;;;;;4884371;29;20060;-62
2023/03/14 04:06:23;;;;;;;1.60;0.90;;;;;;;;;;4856052;29;20124;-62
2023/03/14 04:08:55;;;;;;;3.00;0.75;;;;;;;;;;4847238;29;20414;-62
2023/03/14 04:11:37;;;;;;;2.60;0.80;;;;;;;;;;4836436;29;20053;-62
2023/03/14 04:14:20;;;;;;;3.83;0.90;;;;;;;;;;4839338;29;20065;-63
2023/03/14 04:16:59;;;;;;;4.95;1.17;;;;;;;;;;4859177;29;20460;-63
2023/03/14 04:19:30;;;;;;;4.85;0.90;;;;;;;;;;4844057;29;20054;-62
2023/03/14 04:22:00;;;;;;;1.92;0.70;;;;;;;;;;4840615;29;20049;-62
2023/03/14 04:24:35;;;;;;;2.63;0.93;;;;;;;;;;4862554;29;20065;-61
2023/03/14 04:27:05;;;;;;;1.73;0.77;;;;;;;;;;4852342;29;20062;-62
2023/03/14 04:29:35;;;;;;;1.17;0.80;;;;;;;;;;4837418;29;20066;-61
2023/03/14 04:32:05;;;;;;;2.50;0.95;;;;;;;;;;4822322;29;20510;-61
2023/03/14 04:34:41;;;;;;;6.25;0.93;;;;;;;;;;4836903;29;20077;-61
2023/03/14 04:37:12;;;;;;;2.10;1.02;;;;;;;;;;4858777;29;20503;-63
2023/03/14 04:39:44;;;;;;;2.92;1.00;;;;;;;;;;4847075;29;20060;-61
2023/03/14 04:42:25;;;;;;;6.30;0.90;;;;;;;;;;4912327;29;20063;-62
2023/03/14 04:44:55;;;;;;;5.10;1.23;;;;;;;;;;4896043;29;20083;-62
2023/03/14 04:47:27;;;;;;;3.30;0.80;;;;;;;;;;4861367;29;20503;-62
2023/03/14 04:49:58;;;;;;;1.95;0.90;;;;;;;;;;4858580;29;20049;-61
2023/03/14 04:52:29;;;;;;;1.83;1.02;;;;;;;;;;4877060;29;20064;-61
2023/03/14 04:55:00;;;;;;;1.98;0.82;;;;;;;;;;4865201;29;20789;-62
2023/03/14 04:57:30;;;;;;;2.85;1.08;;;;;;;;;;4837973;29;20660;-62
2023/03/14 05:00:00;;;;;;;1.60;0.85;;;;;;;;;;4824877;29;20069;-61
2023/03/14 05:02:48;;;;;;;1.75;0.82;;;;;;;;;;4840224;29;20546;-61
2023/03/14 05:05:32;;;;;;;2.13;0.80;;;;;;;;;;4821633;29;20042;-62
2023/03/14 05:08:02;;;;;;;1.70;0.95;;;;;;;;;;4821773;29;20066;-62
2023/03/14 05:10:57;;;;;;;2.88;0.90;;;;;;;;;;4785939;29;20066;-62
2023/03/14 05:14:06;;;;;;;4.90;1.30;;;;;;;;;;4757675;30;20056;-62
2023/03/14 05:16:59;;;;;;;0.98;0.63;;;;;;;;;;4744417;30;20060;-62
2023/03/14 05:19:55;;;;;;;3.22;0.93;;;;;;;;;;4743192;30;20059;-62
2023/03/14 05:23:02;;;;;;;1.75;0.90;;;;;;;;;;4720094;30;20577;-61
2023/03/14 05:26:09;;;;;;;3.55;0.90;;;;;;;;;;4797570;29;20063;-63
2023/03/14 05:29:16;;;;;;;3.05;1.02;;;;;;;;;;4818958;29;20054;-62
2023/03/14 05:32:17;;;;;;;4.00;0.70;;;;;;;;;;4792076;29;20056;-61
2023/03/14 05:35:00;;;;;;;3.30;0.93;;;;;;;;;;4767712;30;20059;-62
2023/03/14 05:38:01;;;;;;;2.95;0.82;;;;;;;;;;4789435;29;20051;-61
2023/03/14 05:41:10;;;;;;;2.45;0.90;;;;;;;;;;4785609;29;20047;-62
2023/03/14 05:44:05;;;;;;;2.30;0.80;;;;;;;;;;4764364;29;20851;-62
2023/03/14 05:46:56;;;;;;;2.13;0.80;;;;;;;;;;4809351;29;20046;-61
2023/03/14 05:49:29;;;;;;;2.85;0.80;;;;;;;;;;4844048;29;20050;-62
2023/03/14 05:52:09;;;;;;;6.50;1.08;;;;;;;;;;4825925;29;20538;-63
2023/03/14 05:54:55;;;;;;;2.17;0.85;;;;;;;;;;4815784;29;20568;-62
2023/03/14 05:57:50;;;;;;;2.45;0.70;;;;;;;;;;4852204;29;20406;-63
2023/03/14 06:00:43;;;;;;;4.53;1.00;;;;;;;;;;4863946;29;20066;-62
2023/03/14 06:03:40;;;;;;;5.85;0.80;;;;;;;;;;4821046;29;20058;-63
2023/03/14 06:06:23;;;;;;;2.45;0.70;;;;;;;;;;4820281;29;20062;-67
2023/03/14 06:09:07;;;;;;;3.55;0.90;;;;;;;;;;4820749;29;20066;-64
2023/03/14 06:11:52;;;;;;;1.67;0.90;;;;;;;;;;4820456;29;20077;-64
2023/03/14 06:14:41;;;;;;;2.45;0.82;;;;;;;;;;4802343;29;20062;-63
2023/03/14 06:17:25;;;;;;;2.75;0.90;;;;;;;;;;4762716;29;20056;-63
2023/03/14 06:20:10;;;;;;;1.35;0.70;;;;;;;;;;4766342;29;20059;-63
2023/03/14 06:22:41;;;;;;;2.85;0.70;;;;;;;;;;4773976;29;20081;-63
2023/03/14 06:25:13;;;;;;;3.75;0.82;;;;;;;;;;4755280;29;20066;-62
2023/03/14 06:27:46;;;;;;;2.25;0.85;;;;;;;;;;4784341;29;20055;-63
2023/03/14 06:30:17;;;;;;;2.65;1.00;;;;;;;;;;4766180;29;20183;-63
2023/03/14 06:32:48;;;;;;;1.83;0.60;;;;;;;;;;4765891;29;20051;-63
2023/03/14 06:35:19;;;;;;;2.58;0.73;;;;;;;;;;4765913;30;20051;-62
2023/03/14 06:37:49;;;;;;;2.90;0.85;;;;;;;;;;4758034;29;20060;-63
2023/03/14 06:40:19;;;;;;;2.28;0.70;;;;;;;;;;4761714;29;20042;-62
2023/03/14 06:43:04;;;;;;;1.75;0.68;;;;;;;;;;4818260;29;20062;-62
2023/03/14 06:45:36;;;;;;;3.08;0.77;;;;;;;;;;4801796;29;20070;-62
2023/03/14 06:48:06;;;;;;;1.23;0.63;;;;;;;;;;4801718;29;20062;-62
2023/03/14 06:50:50;;;;;;;1.17;0.70;;;;;;;;;;4833490;29;20061;-62
2023/03/14 06:53:21;;;;;;;1.35;0.57;;;;;;;;;;4806978;29;20062;-62
2023/03/14 06:55:52;;;;;;;4.55;0.70;;;;;;;;;;4819883;29;20106;-61
2023/03/14 06:58:22;;;;;;;5.07;1.00;;;;;;;;;;4801629;29;20475;-61
2023/03/14 07:00:54;;;;;;;1.70;0.60;;;;;;;;;;4814138;29;20227;-62
2023/03/14 07:03:28;;;;;;;1.77;0.50;;;;;;;;;;4819751;29;20515;-62
2023/03/14 07:05:59;;;;;;;0.75;0.60;;;;;;;;;;4837799;29;20065;-62
2023/03/14 07:08:29;;;;;;;1.50;0.60;;;;;;;;;;4789997;29;20058;-61
2023/03/14 07:11:01;;;;;;;1.75;0.60;;;;;;;;;;4835568;29;20486;-62
2023/03/14 07:13:31;;;;;;;3.90;0.50;;;;;;;;;;4814496;29;20192;-62
2023/03/14 07:16:06;;;;;;;3.65;0.57;;;;;;;;;;4819565;29;20054;-62
2023/03/14 07:18:37;;;;;;;;;;;;;;;;;;4834263;29;20048;-62
2023/03/14 07:21:11;;;;;;;1.27;0.60;;;;;;;;;;4830764;29;19944;-61
2023/03/14 07:23:41;;;;;;;2.80;0.70;;;;;;;;;;4800963;29;20524;-65
2023/03/14 07:26:13;;;;;;;4.22;0.70;;;;;;;;;;4819477;29;20411;-62
2023/03/14 07:28:48;;;;;;;2.50;0.68;;;;;;;;;;4819603;29;20051;-61
2023/03/14 07:31:20;;;;;;;1.92;0.57;;;;;;;;;;4797707;29;20059;-62
2023/03/14 07:33:52;;;;;;;;;;;;;;;;;;4812914;29;20085;-61
2023/03/14 07:36:23;;;;;;;2.15;0.60;;;;;;;;;;4796565;29;20048;-63
2023/03/14 07:38:53;;;;;;;1.23;0.60;;;;;;;;;;4783491;29;20513;-61
2023/03/14 07:41:35;;;;;;;2.60;0.57;;;;;;;;;;4795921;29;20637;-62
2023/03/14 07:44:40;;;;;;;3.40;0.70;;;;;;;;;;4802296;29;20439;-62
2023/03/14 07:47:10;;;;;;;2.03;0.70;;;;;;;;;;4820220;29;20550;-62
2023/03/14 07:49:40;;;;;;;1.88;0.70;;;;;;;;;;4821434;29;20054;-62
2023/03/14 07:52:10;;;;;;;1.95;0.63;;;;;;;;;;4839364;29;20113;-62
2023/03/14 07:54:40;;;;;;;1.70;0.70;;;;;;;;;;4856681;29;20053;-64
2023/03/14 07:57:10;;;;;;;2.55;0.57;;;;;;;;;;4826133;29;20066;-62
2023/03/14 07:59:40;;;;;;;6.97;1.00;;;;;;;;;;4837891;29;20065;-62
2023/03/14 08:02:13;;;;;;;2.10;0.60;;;;;;;;;;4823097;29;20106;-62
2023/03/14 08:04:43;;;;;;;3.63;0.77;;;;;;;;;;4868881;29;20503;-62
2023/03/14 08:07:13;;;;;;;2.78;0.52;;;;;;;;;;4860206;29;20061;-62
2023/03/14 08:09:43;;;;;;;1.45;0.65;;;;;;;;;;4874346;29;20458;-62
2023/03/14 08:12:13;;;;;;;4.13;0.88;;;;;;;;;;4908025;29;20063;-62
2023/03/14 08:14:43;;;;;;;2.08;0.57;;;;;;;;;;4945572;29;20075;-63
2023/03/14 08:17:13;;;;;;;2.67;0.70;;;;;;;;;;4954304;29;20395;-63
2023/03/14 08:19:43;;;;;;;3.17;0.77;;;;;;;;;;5002632;28;20053;-62
2023/03/14 08:22:12;;;;;;;3.50;1.00;;;;;;;;;;5035729;28;20056;-62
2023/03/14 08:24:44;;;;;;;1.40;0.63;;;;;;;;;;5054151;28;20041;-62
2023/03/14 08:27:14;;;;;;;3.08;0.65;;;;;;;;;;5054645;28;20052;-62
2023/03/14 08:29:46;;;;;;;1.77;0.82;;;;;;;;;;5054315;28;20701;-62
2023/03/14 08:32:16;;;;;;;2.67;0.55;;;;;;;;;;5054307;28;20396;-61
2023/03/14 08:34:46;;;;;;;2.80;0.52;;;;;;;;;;5054196;28;20048;-61
2023/03/14 08:37:16;;;;;;;1.50;0.70;;;;;;;;;;5054185;28;20582;-61
2023/03/14 08:39:54;;;;;;;1.83;0.73;;;;;;;;;;5053857;28;20048;-62
2023/03/14 08:42:25;;;;;;;1.20;0.80;;;;;;;;;;5035768;28;20053;-62
2023/03/14 08:44:55;;;;;;;1.77;0.60;;;;;;;;;;5070992;28;20052;-63
2023/03/14 08:47:25;;;;;;;2.00;0.70;;;;;;;;;;5071409;28;20083;-62
2023/03/14 08:49:55;;;;;;;3.70;0.60;;;;;;;;;;5054959;28;20056;-63
2023/03/14 08:52:25;;;;;;;2.22;0.90;;;;;;;;;;5071326;28;20436;-63
2023/03/14 08:54:55;;;;;;;1.88;0.80;;;;;;;;;;5038391;28;20068;-62
2023/03/14 08:57:27;;;;;;;1.73;0.60;;;;;;;;;;5071410;28;20550;-63
2023/03/14 08:59:57;;;;;;;;;;;;;;;;;;5071415;28;20044;-62
2023/03/14 09:02:27;;;;;;;3.70;0.80;;;;;;;;;;5071098;28;19920;-63
2023/03/14 09:04:56;;;;;;;1.65;0.68;;;;;;;;;;5071067;28;20048;-62
2023/03/14 09:07:26;;;;;;;1.42;0.70;;;;;;;;;;5021407;28;20518;-62
2023/03/14 09:09:57;;;;;;;1.98;0.68;;;;;;;;;;5071195;28;20535;-61
2023/03/14 09:12:27;;;;;;;2.10;0.80;;;;;;;;;;5070993;28;20087;-62
2023/03/14 09:14:57;;;;;;;2.28;1.02;;;;;;;;;;5054510;28;20052;-62
2023/03/14 09:17:27;;;;;;;1.83;0.88;;;;;;;;;;5070540;28;20059;-62
2023/03/14 09:19:57;;;;;;;2.38;0.82;;;;;;;;;;5070935;28;20519;-62
2023/03/14 09:22:28;;;;;;;1.90;0.85;;;;;;;;;;5062240;28;20068;-61
2023/03/14 09:24:58;;;;;;;1.85;0.70;;;;;;;;;;5053335;28;20083;-61
2023/03/14 09:27:28;;;;;;;1.70;0.82;;;;;;;;;;5052966;28;20049;-62
2023/03/14 09:29:57;;;;;;;2.53;0.90;;;;;;;;;;5033971;28;20076;-61
2023/03/14 09:32:27;;;;;;;2.13;0.70;;;;;;;;;;5017276;28;20396;-61
2023/03/14 09:34:57;;;;;;;2.38;1.08;;;;;;;;;;5053200;28;20037;-62
2023/03/14 09:37:27;;;;;;;2.55;0.90;;;;;;;;;;5034553;28;20500;-62
2023/03/14 09:39:57;;;;;;;3.58;1.00;;;;;;;;;;5052662;28;20041;-61
2023/03/14 09:42:28;;;;;;;4.20;1.10;;;;;;;;;;5050291;28;20049;-61
2023/03/14 09:45:06;;;;;;;5.28;0.90;;;;;;;;;;5050406;28;20064;-62
2023/03/14 09:47:37;;;;;;;1.48;0.63;;;;;;;;;;5013350;28;20048;-64
2023/03/14 09:50:20;;;;;;;4.13;0.90;;;;;;;;;;5046666;28;20045;-62
2023/03/14 09:52:55;;;;;;;1.25;0.80;;;;;;;;;;5030252;28;20058;-62
2023/03/14 09:55:25;;;;;;;1.20;0.73;;;;;;;;;;5029992;28;20049;-62
2023/03/14 09:58:00;;;;;;;3.97;1.02;;;;;;;;;;5030061;28;20064;-61
2023/03/14 10:00:31;;;;;;;1.90;1.00;;;;;;;;;;5013837;28;20065;-62
2023/03/14 10:03:14;;;;;;;2.92;0.90;;;;;;;;;;5013013;28;20057;-62
2023/03/14 10:05:44;;;;;;;2.45;0.60;;;;;;;;;;4997295;28;20421;-62
2023/03/14 10:08:14;;;;;;;1.67;0.70;;;;;;;;;;4980732;28;20054;-62
2023/03/14 10:10:44;;;;;;;2.38;0.68;;;;;;;;;;5009994;28;20065;-62
2023/03/14 10:13:27;;;;;;;8.93;1.50;;;;;;;;;;5009893;28;20049;-63
2023/03/14 10:16:07;;;;;;;1.58;0.82;;;;;;;;;;5010178;28;20069;-63
2023/03/14 10:18:37;;;;;;;1.15;0.70;;;;;;;;;;5010119;28;20057;-62
2023/03/14 10:21:28;;;;;;;2.30;0.85;;;;;;;;;;5009918;28;20058;-63
2023/03/14 10:24:08;;;;;;;;;;;;;;;;;;5010382;28;20457;-62
2023/03/14 10:26:38;;;;;;;2.72;0.80;;;;;;;;;;5029910;28;19928;-62
2023/03/14 10:29:12;;;;;;;2.78;0.73;;;;;;;;;;5013233;28;20158;-62
2023/03/14 10:31:57;;;;;;;1.70;0.90;;;;;;;;;;4997029;28;20049;-62
2023/03/14 10:34:38;;;;;;;2.13;1.10;;;;;;;;;;5009798;28;20065;-63
2023/03/14 10:37:25;;;;;;;3.35;1.00;;;;;;;;;;5028869;28;20544;-62
2023/03/14 10:40:05;;;;;;;2.42;0.90;;;;;;;;;;5028782;28;20046;-62
2023/03/14 10:42:41;;;;;;;5.15;2.10;;;;;;;;;;5028588;28;20049;-63
2023/03/14 10:45:40;;;;;;;1.45;0.90;;;;;;;;;;4980136;28;20452;-63
2023/03/14 10:48:22;;;;;;;5.25;0.95;;;;;;;;;;4996202;28;20052;-62
2023/03/14 10:50:55;;;;;;;1.88;1.15;;;;;;;;;;5048735;28;20507;-62
2023/03/14 10:53:25;;;;;;;3.25;1.40;;;;;;;;;;5050722;28;20044;-62
2023/03/14 10:55:57;;;;;;;3.70;1.20;;;;;;;;;;5032205;28;20607;-66
2023/03/14 10:58:29;;;;;;;2.30;1.15;;;;;;;;;;5015972;28;20065;-64
2023/03/14 11:01:22;;;;;;;4.03;1.33;;;;;;;;;;5031477;28;20064;-62
2023/03/14 11:04:06;;;;;;;3.72;1.05;;;;;;;;;;5051000;28;20072;-64
2023/03/14 11:06:48;;;;;;;3.35;1.75;;;;;;;;;;5050605;28;20396;-64
2023/03/14 11:09:27;;;;;;;3.65;1.27;;;;;;;;;;5049848;28;20055;-62
2023/03/14 11:12:21;;;;;;;3.88;1.27;;;;;;;;;;5050842;28;20048;-63
2023/03/14 11:14:59;;;;;;;6.22;1.42;;;;;;;;;;5008180;28;20076;-62
2023/03/14 11:17:41;;;;;;;1.88;1.13;;;;;;;;;;4989170;28;20061;-64
2023/03/14 11:20:40;;;;;;;4.95;1.35;;;;;;;;;;4988026;28;20066;-62
2023/03/14 11:23:21;;;;;;;;;;;;;;;;;;4969142;28;20046;-64
2023/03/14 11:26:21;;;;;;;5.45;0.98;;;;;;;;;;4937452;28;19922;-63
2023/03/14 11:28:58;;;;;;;3.53;1.10;;;;;;;;;;4969518;28;20054;-62
2023/03/14 11:31:32;;;;;;;4.88;1.00;;;;;;;;;;4922011;28;20181;-62
2023/03/14 11:34:12;;;;;;;2.03;1.00;;;;;;;;;;4937571;28;20039;-63
2023/03/14 11:36:52;;;;;;;13.13;5.75;;;;;;;;;;4921697;28;20503;-62
2023/03/14 11:39:24;;;;;;;5.07;1.90;;;;;;;;;;4969860;28;20055;-65
2023/03/14 11:41:57;;;;;;;5.95;2.08;;;;;;;;;;4953386;28;20051;-62
2023/03/14 11:44:32;;;;;;;4.35;1.30;;;;;;;;;;4969707;28;20503;-61
2023/03/14 11:47:14;;;;;;;7.57;3.35;;;;;;;;;;4912058;29;20059;-62
2023/03/14 11:50:29;;;;;;;4.10;1.25;;;;;;;;;;4912389;29;20413;-64
2023/03/14 11:53:04;;;;;;;1.90;1.00;;;;;;;;;;4890907;29;20060;-61
2023/03/14 11:55:42;;;;;;;2.85;0.77;;;;;;;;;;4906265;29;20532;-61
2023/03/14 11:58:25;;;;;;;1.65;1.10;;;;;;;;;;4912209;29;20564;-62
2023/03/14 12:00:57;;;;;;;1.65;0.80;;;;;;;;;;4932862;28;20519;-62
2023/03/14 12:04:01;;;;;;;2.13;0.90;;;;;;;;;;4918664;29;20063;-62
2023/03/14 12:06:45;;;;;;;3.55;1.10;;;;;;;;;;4911201;29;20048;-62
2023/03/14 12:09:18;;;;;;;3.80;1.50;;;;;;;;;;4896574;29;20428;-63
2023/03/14 12:11:56;;;;;;;5.95;1.20;;;;;;;;;;4912112;29;20060;-62
2023/03/14 12:14:37;;;;;;;3.53;1.83;;;;;;;;;;4896301;29;20077;-61
2023/03/14 12:17:42;;;;;;;1.75;0.90;;;;;;;;;;4911973;29;20068;-63
2023/03/14 12:20:21;;;;;;;2.25;1.00;;;;;;;;;;4880322;29;20060;-64
2023/03/14 12:23:12;;;;;;;4.10;0.90;;;;;;;;;;4895601;29;20048;-62
2023/03/14 12:25:42;;;;;;;3.10;1.33;;;;;;;;;;4970851;28;20533;-62
2023/03/14 12:28:31;;;;;;;2.78;1.27;;;;;;;;;;4975863;28;20064;-62
2023/03/14 12:31:31;;;;;;;1.50;0.90;;;;;;;;;;4993664;28;20054;-62
2023/03/14 12:34:21;;;;;;;15.85;6.45;;;;;;;;;;5011799;28;20060;-63
2023/03/14 12:37:11;;;;;;;5.78;1.23;;;;;;;;;;4934546;29;20060;-62
2023/03/14 12:40:17;;;;;;;3.40;1.80;;;;;;;;;;4934330;29;20060;-64
2023/03/14 12:43:03;;;;;;;3.22;1.48;;;;;;;;;;4928364;28;20061;-63
2023/03/14 12:45:35;;;;;;;6.57;1.20;;;;;;;;;;4972020;28;20865;-63
2023/03/14 12:48:25;;;;;;;5.55;1.17;;;;;;;;;;4972113;28;20051;-63
2023/03/14 12:51:03;;;;;;;1.77;0.75;;;;;;;;;;4924616;28;20526;-63
2023/03/14 12:54:01;;;;;;;1.67;0.80;;;;;;;;;;4971781;28;20106;-64
2023/03/14 12:56:50;;;;;;;;;;;;;;;;;;4972371;28;20051;-64
2023/03/14 12:59:32;;;;;;;5.75;3.40;;;;;;;;;;4971994;28;19922;-63
2023/03/14 13:02:09;;;;;;;4.43;1.20;;;;;;;;;;4971601;28;20055;-64
2023/03/14 13:04:48;;;;;;;9.85;2.92;;;;;;;;;;4972052;28;20407;-63
2023/03/14 13:07:36;;;;;;;17.27;7.10;;;;;;;;;;4971585;28;20416;-62
2023/03/14 13:10:09;;;;;;;15.95;7.97;;;;;;;;;;4971991;28;20055;-65
2023/03/14 13:12:51;;;;;;;11.50;4.55;;;;;;;;;;4939327;28;20529;-62
2023/03/14 13:15:28;;;;;;;5.45;1.60;;;;;;;;;;5033783;28;20493;-62
2023/03/14 13:18:26;;;;;;;3.65;1.55;;;;;;;;;;5000672;28;20049;-63
2023/03/14 13:21:13;;;;;;;2.92;1.35;;;;;;;;;;5016785;28;20064;-63
2023/03/14 13:24:04;;;;;;;2.03;0.80;;;;;;;;;;5017475;28;20060;-64
2023/03/14 13:26:39;;;;;;;2.85;1.00;;;;;;;;;;5050109;28;20052;-63
2023/03/14 13:29:21;;;;;;;1.38;0.85;;;;;;;;;;5000333;28;20049;-63
2023/03/14 13:31:54;;;;;;;1.67;0.90;;;;;;;;;;5050538;28;20052;-63
2023/03/14 13:34:34;;;;;;;3.78;1.92;;;;;;;;;;5017054;28;20048;-63
2023/03/14 13:37:05;;;;;;;7.32;5.10;;;;;;;;;;5017667;28;20068;-63
2023/03/14 13:39:35;;;;;;;3.78;1.33;;;;;;;;;;5022089;28;20060;-63
2023/03/14 13:42:16;;;;;;;3.85;0.88;;;;;;;;;;5005913;28;20060;-65
2023/03/14 13:44:47;;;;;;;3.00;0.90;;;;;;;;;;5033121;28;20064;-64
2023/03/14 13:47:20;;;;;;;1.48;0.98;;;;;;;;;;5034037;28;20057;-63
2023/03/14 13:49:51;;;;;;;1.92;0.75;;;;;;;;;;5052330;28;20049;-63
2023/03/14 13:52:29;;;;;;;2.85;0.88;;;;;;;;;;5033763;28;20057;-62
2023/03/14 13:55:03;;;;;;;2.97;0.80;;;;;;;;;;5033481;28;20060;-62
2023/03/14 13:57:54;;;;;;;2.17;0.70;;;;;;;;;;5050524;28;20057;-64
2023/03/14 14:00:26;;;;;;;1.65;0.80;;;;;;;;;;5066082;28;20056;-63
2023/03/14 14:02:59;;;;;;;3.83;1.02;;;;;;;;;;5068196;28;20483;-62
2023/03/14 14:05:31;;;;;;;1.73;0.90;;;;;;;;;;5068160;28;20156;-63
2023/03/14 14:08:04;;;;;;;4.22;0.90;;;;;;;;;;5068467;28;20420;-63
2023/03/14 14:10:37;;;;;;;6.03;1.10;;;;;;;;;;4996209;28;20504;-63
2023/03/14 14:13:15;;;;;;;1.98;0.70;;;;;;;;;;5046634;28;20639;-62
2023/03/14 14:15:48;;;;;;;7.13;4.28;;;;;;;;;;5014883;28;20124;-62
2023/03/14 14:18:21;;;;;;;2.88;0.95;;;;;;;;;;5047989;28;20524;-62
2023/03/14 14:20:51;;;;;;;2.20;0.82;;;;;;;;;;5047818;28;20060;-63
2023/03/14 14:23:25;;;;;;;2.22;1.48;;;;;;;;;;5049329;28;20056;-63
2023/03/14 14:26:00;;;;;;;3.08;1.33;;;;;;;;;;5049544;28;20053;-63
2023/03/14 14:28:38;;;;;;;1.65;0.60;;;;;;;;;;5016503;28;20523;-63
2023/03/14 14:31:22;;;;;;;1.60;0.90;;;;;;;;;;4999817;28;20053;-64
2023/03/14 14:33:58;;;;;;;1.20;0.80;;;;;;;;;;5016504;28;20575;-63
2023/03/14 14:36:44;;;;;;;3.35;0.90;;;;;;;;;;5031444;28;20060;-63
2023/03/14 14:39:26;;;;;;;2.13;0.73;;;;;;;;;;5048497;28;20060;-64
2023/03/14 14:41:56;;;;;;;3.58;0.90;;;;;;;;;;5046934;28;20049;-62
2023/03/14 14:44:36;;;;;;;5.80;0.95;;;;;;;;;;5048722;28;20566;-63
2023/03/14 14:47:06;;;;;;;3.10;0.90;;;;;;;;;;5049095;28;20052;-64
2023/03/14 14:49:36;;;;;;;1.58;0.70;;;;;;;;;;5033194;28;20061;-62
2023/03/14 14:52:18;;;;;;;3.28;1.58;;;;;;;;;;5049233;28;20531;-63
2023/03/14 14:54:56;;;;;;;1.40;0.90;;;;;;;;;;5057940;28;20544;-66
2023/03/14 14:57:39;;;;;;;4.85;0.98;;;;;;;;;;5056127;28;20052;-66
2023/03/14 15:00:20;;;;;;;2.85;0.82;;;;;;;;;;5067871;28;20082;-66
2023/03/14 15:02:53;;;;;;;3.05;1.70;;;;;;;;;;5067779;28;20500;-66
2023/03/14 15:05:26;;;;;;;2.40;1.30;;;;;;;;;;5053573;28;20046;-66
2023/03/14 15:07:57;;;;;;;2.28;1.00;;;;;;;;;;5015370;28;20056;-66
2023/03/14 15:10:27;;;;;;;3.08;0.98;;;;;;;;;;5068450;28;20052;-66
2023/03/14 15:12:57;;;;;;;2.83;0.80;;;;;;;;;;5068294;28;20060;-66
2023/03/14 15:15:27;;;;;;;1.25;0.70;;;;;;;;;;5068409;28;20044;-66
2023/03/14 15:17:56;;;;;;;2.20;0.77;;;;;;;;;;5035054;28;20436;-66
2023/03/14 15:20:26;;;;;;;1.33;0.57;;;;;;;;;;5068156;28;20061;-66
2023/03/14 15:22:56;;;;;;;2.42;0.60;;;;;;;;;;5067968;28;20052;-66
2023/03/14 15:25:26;;;;;;;1.13;0.70;;;;;;;;;;5061928;28;20059;-66
2023/03/14 15:28:24;;;;;;;1.90;0.82;;;;;;;;;;5088245;28;20053;-66
2023/03/14 15:30:57;;;;;;;1.45;0.68;;;;;;;;;;5067619;28;20049;-67
2023/03/14 15:33:28;;;;;;;1.40;0.80;;;;;;;;;;5065030;28;20543;-66
2023/03/14 15:35:59;;;;;;;2.03;0.90;;;;;;;;;;5050425;28;20044;-66
2023/03/14 15:38:30;;;;;;;3.97;0.75;;;;;;;;;;5014440;28;20064;-66
2023/03/14 15:41:00;;;;;;;1.50;0.50;;;;;;;;;;5058162;28;20049;-64
2023/03/14 15:43:30;;;;;;;1.02;0.68;;;;;;;;;;5048616;28;20049;-64